Route Details

Aircraft Information
Group: European Fleet
Types: A30F, A31F, B738
Route Data
Distance: 210nm
Duration: 0h 45m
Origin METAR: LFPG 160100Z VRB02KT CAVOK 19/15 Q1008 NOSIG
Dest. METAR: EDDK 160050Z AUTO 14005KT CAVOK 19/14 Q1008 NOSIG
Freight Data
(for Aug 16, 2022)
Load Factor:
36%
Manifested Cargo: 33,223lbs
Financial History
Total Freight: 326,883lbs
Average Load: 0lbs/flt
Fuel Used: 87,162lbs
Avg. Fuel Used: 0lbs/flt
Fuel Expense: $30,958
Avg. Fuel Expense: $0
Avg. Fuel Cost: $0/lbs
Total Gross Income: $706,846
Pilot Pay: $1,225
Total Expenses: $122,682
Total Revenue: $551,892
Average Revenue: $0

Capitol Logistics 590




LFPG
Charles de Gaulle
Paris, FR
EDDK
Cologne Bonn Airport
Cologne, DE